Airfield :
LOGIN :

Register | Disclaimer

   EN    FR    IT 

 










Legend :    VFR   Marginal VFR   IFR   Intensive IFR   Very Intensive IFR
Visi :
Ceiling :
>= 8 km
>= 3000ft
5 to 8 km
1000 to 3000 ft
1500m to 5 km
500 to 1000 ft
800 to 1500m
200 to 500 ft
< 800m
< 200 ft
Symbols :   Thunderstorms  Fog  Heavy snow  Heavy precipitations  Wind > 20 kt
SIGMETs :     Misc.  Thunderstorms  Icing  Turbulence  Mountain Waves  Volcanic Ashes







- Airport Elevation : 215 ft
- IATA code : ABZ
- Download approach charts


EGPD - Aberdeen / Dyce

CURRENT METAR :
  • 191820Z 26009KT 9999 VCSH BKN047 17/09 Q1006 TEMPO RA

EXPIRED METARs :
  • 191750Z 26008KT 9999 VCSH SCT049 17/08 Q1005 TEMPO RA
  • 191720Z AUTO 26010KT 9999 NCD 18/09 Q1005 TEMPO RA
  • 191650Z AUTO 26011KT 220V290 9999 NCD 18/09 Q1005 NOSIG
  • 191620Z AUTO 24010KT 210V290 9999 NCD 18/09 Q1004
  • 191550Z 26012KT 9999 VCSH FEW046 18/09 Q1004 NOSIG

TAF TAF EGPD
Valid from the 19 at 18:00 until the 20 at 18:00 UTC


191655Z 1918/2018 27008KT 9999 SCT035
PROB40
TEMPO 1918/1924 7000 RA
PROB30
TEMPO 2016/2018 7000 SHRA
No reported NOTAMs for that airfield.



MET'MAP, your aeronautical weather chart ! - Copyright ORBIFLY December 2007 - Disclaimer

ORBIFLY MET'MAP TEAM :

Programming & Development : Alexandra Zaïnal
Concept & Development : Baudouin d'Aumeries
Co-Development & Prog : Marc-Olivier Méhu
Technical & hardware support : Manuel Goepfert

Contact : metmap@orbifly.com




SOURCES & CREDITS :

   NOAA